(°C)
(°C)
SSO
SSO
SSO
SSO
SSO
SSO
SO
(km/h)
5-15
6-16
7-15
8-16
8-16
8-16
8-17
(mm)
3
1.8
0
0
0
1.5
1.3
(%)
74
74
63
70
69
81
90

Élévation du soleil

/ -12.8°
sun-icon
UV 3
03:24
19:53
Gibbeuse décroissante (213°)
23:35
04:25

METAR pour 55.61°N 49.28°E (UWKD)

Heure Conditions Température/
Point de rosée
Vent Visibilité Météo Nuages Pression Changement Brut
VFR 8°C / 7°C 360º 6kt 9000m Light Showers Rain 3.00mm precipitation Vertical Visibility of 0ft. 1000 No Significant change. Runway 11: Wet or puddles, with <1mm, friction coefficient 0.50. UWKD 172130Z 36003MPS 9000 -SHRA BKN038CB 08/07 Q1000 R11/2/0050 NOSIG RMK QFE740/0987
VFR 8°C / 7°C 360º variable 330º to 050º 4kt >10km Light Showers Rain 3.00mm precipitation Vertical Visibility of 0ft. 1000 No Significant change. Runway 29: Wet or puddles, with <1mm, friction coefficient 0.50. UWKD 172100Z 36002MPS 330V050 9999 -SHRA BKN041CB 08/07 Q1000 R29/2/0050 NOSIG RMK QFE739/0985
VFR 8°C / 7°C 30º 4kt >10km Light Showers Rain 3.00mm precipitation Vertical Visibility of 0ft. 1000 No Significant change. Runway 29: Wet or puddles, with <1mm, friction coefficient 0.50. UWKD 172030Z 03002MPS 9999 3100SW -SHRA BKN039CB 08/07 Q1000 R29/2/0050 NOSIG RMK QFE739/0986
VFR 8°C / 7°C 10º 6kt 9000m Light Showers Rain 3.00mm precipitation Vertical Visibility of 0ft. 1000 No Significant change. Runway 29: Wet or puddles, with <1mm, friction coefficient 0.50. UWKD 172000Z 01003MPS 9000 -SHRA BKN041CB 08/07 Q1000 R29/2/0050 NOSIG RMK QFE739/0986
VFR 9°C / 8°C 20º 6kt >10km Light Showers Rain 3.00mm precipitation Vertical Visibility of 0ft. 1000 No Significant change. Runway 29: Wet or puddles, with <1mm, friction coefficient 0.50. UWKD 171930Z 02003MPS 9999 -SHRA BKN042CB 09/08 Q1000 R29/2/0050 NOSIG RMK QFE739/0986
MVFR 9°C / 8°C 360º 8kt 8000m Light Showers Rain 3.00mm precipitation Vertical Visibility of 0ft. 1000 No Significant change. Runway 29: Wet or puddles, with <1mm, friction coefficient 0.50. UWKD 171900Z 36004MPS 8000 -SHRA BKN040CB 09/08 Q1000 R29/2/0050 NOSIG RMK QFE739/0986
VFR 10°C / 7°C 340º 6kt >10km Light Showers Rain 3.00mm precipitation Vertical Visibility of 0ft. 1000 No Significant change. Runway 29: Wet or puddles, with <1mm, friction coefficient 0.50. UWKD 171830Z 34003MPS 9999 -SHRA BKN043CB 10/07 Q1000 R29/2/0050 NOSIG RMK QFE739/0986
VFR 9°C / 8°C variable 0kt >10km Light Showers Rain 3.00mm precipitation Vertical Visibility of 0ft. 1000 No Significant change. Runway 11: Wet or puddles, with <1mm, friction coefficient 0.50. UWKD 171800Z 00000MPS 9999 -SHRA BKN043CB 09/08 Q1000 R11/2/0050 NOSIG RMK QFE740/0987
MVFR 10°C / 7°C 100º variable 060º to 120º 6kt 8000m Light Showers Rain 3.00mm precipitation Vertical Visibility of 0ft. 1001 No Significant change. Runway 11: Wet or puddles, with <1mm, friction coefficient 0.50. UWKD 171730Z 10003MPS 060V120 8000 -SHRA BKN037CB 10/07 Q1001 R11/2/0050 NOSIG RMK QFE740/0987
MVFR 10°C / 8°C 110º variable 010º to 150º 6kt >10km Light Showers Rain 3.00mm precipitation Vertical Visibility of 0ft. 1000 No Significant change. Runway 29: Damp, with <1mm, friction coefficient 0.60. UWKD 171700Z 11003MPS 010V150 9999 -SHRA BKN023CB 10/08 Q1000 R29/1/0060 NOSIG RMK QFE739/0986
VFR 11°C / 7°C 310º 4kt >10km Light Showers Rain 3.00mm precipitation Vertical Visibility of 0ft. 1000 No Significant change. Runway 29: Damp, with <1mm, friction coefficient 0.60. UWKD 171630Z 31002MPS 9999 -SHRA BKN037CB 11/07 Q1000 R29/1/0060 NOSIG RMK QFE739/0986
VFR 12°C / 6°C 310º 4kt >10km - Broken Clouds 4500ft 1000 No Significant change. Runway 29: Damp, with <1mm, friction coefficient 0.60. UWKD 171600Z 31002MPS 9999 BKN045CB 12/06 Q1000 R29/1/0060 NOSIG RMK QFE739/0985
VFR 12°C / 6°C 320º 4kt >10km - Broken Clouds 5400ft 1000 No Significant change. Runway 29: Damp, with <1mm, friction coefficient 0.60. UWKD 171530Z 32002MPS 9999 BKN054CB 12/06 Q1000 R29/1/0060 NOSIG RMK QFE739/0985
VFR 12°C / 6°C 310º variable 290º to 350º 4kt >10km - Broken Clouds 5400ft 1000 No Significant change. Runway 29: Damp, with <1mm, friction coefficient 0.60. UWKD 171500Z 31002MPS 290V350 9999 BKN054CB 12/06 Q1000 R29/1/0060 NOSIG RMK QFE739/0985
VFR 13°C / 4°C 270º variable 240º to 300º 4kt >10km - Broken Clouds 6100ft 1000 No Significant change. Runway 29: Damp, with <1mm, friction coefficient 0.60. UWKD 171430Z 27002MPS 240V300 9999 BKN061CB 13/04 Q1000 R29/1/0060 NOSIG RMK QFE739/0985
VFR 13°C / 6°C 240º variable 200º to 260º 8kt >10km Light Showers Rain 3.00mm precipitation Vertical Visibility of 0ft. 1000 No Significant change. Runway 29: Damp, with <1mm, friction coefficient 0.60. UWKD 171400Z 24004MPS 200V260 9999 -SHRA BKN062CB 13/06 Q1000 R29/1/0060 NOSIG RMK QFE739/0985
VFR 13°C / 5°C 260º 8kt >10km - Broken Clouds 6000ft 1000 No Significant change. Runway 29: Damp, with <1mm, friction coefficient 0.60. UWKD 171330Z 26004MPS 9999 BKN060CB 13/05 Q1000 R29/1/0060 NOSIG RMK QFE739/0985
VFR 13°C / 7°C 250º 10kt >10km - Broken Clouds 6000ft 1000 No Significant change. Runway 29: Damp, with <1mm, friction coefficient 0.60. UWKD 171300Z 25005MPS 9999 BKN060CB 13/07 Q1000 R29/1/0060 NOSIG RMK QFE739/0985
VFR 12°C / 7°C 250º 10kt >10km Light Showers Rain 3.00mm precipitation Vertical Visibility of 0ft. 1000 No Significant change. Runway 29: Damp, with <1mm, friction coefficient 0.60. UWKD 171230Z 25005MPS 9999 -SHRA BKN077CB 12/07 Q1000 R29/1/0060 NOSIG RMK QFE739/0985
VFR 12°C / 7°C 250º 10kt >10km Light Showers Rain 3.00mm precipitation Vertical Visibility of 0ft. 1000 No Significant change UWKD 171200Z 25005MPS 9999 -SHRA BKN061CB 12/07 Q1000 R29/CLRD70 NOSIG RMK QFE739/0985
VFR 12°C / 6°C 230º 8kt >10km - Scattered Clouds 3300ft 1000 No Significant change UWKD 171130Z 23004MPS 9999 SCT033CB 12/06 Q1000 R29/70D NOSIG RMK QFE739/0985
VFR 13°C / 6°C 230º 10kt >10km - Scattered Clouds 3300ft 1000 No Significant change UWKD 171100Z 23005MPS 9999 SCT033CB 13/06 Q1000 R29/CLRD70 NOSIG RMK QFE739/0985
VFR 13°C / 5°C 230º variable 190º to 250º 10kt >10km - Broken Clouds 3300ft 999 No Significant change UWKD 171030Z 23005MPS 190V250 9999 BKN033CB 13/05 Q0999 R29/CLRD70 NOSIG RMK QFE739/0985
VFR 14°C / 5°C 230º variable 200º to 260º 10kt >10km - Broken Clouds 5000ft 1000 No Significant change UWKD 171000Z 23005MPS 200V260 9999 BKN050CB 14/05 Q1000 R29/70D NOSIG RMK QFE739/0985

VFR

8°C / 7°C

[Plus]
Vent 360º 6kt
Visibilité 9000m
Météo Light Showers Rain 3.00mm precipitation
Nuages Vertical Visibility of 0ft.
Pression 1000
Changement No Significant change. Runway 11: Wet or puddles, with <1mm, friction coefficient 0.50.
Brut UWKD 172130Z 36003MPS 9000 -SHRA BKN038CB 08/07 Q1000 R11/2/0050 NOSIG RMK QFE740/0987

VFR

8°C / 7°C

[Plus]
Vent 360º variable 330º to 050º 4kt
Visibilité >10km
Météo Light Showers Rain 3.00mm precipitation
Nuages Vertical Visibility of 0ft.
Pression 1000
Changement No Significant change. Runway 29: Wet or puddles, with <1mm, friction coefficient 0.50.
Brut UWKD 172100Z 36002MPS 330V050 9999 -SHRA BKN041CB 08/07 Q1000 R29/2/0050 NOSIG RMK QFE739/0985

VFR

8°C / 7°C

[Plus]
Vent 30º 4kt
Visibilité >10km
Météo Light Showers Rain 3.00mm precipitation
Nuages Vertical Visibility of 0ft.
Pression 1000
Changement No Significant change. Runway 29: Wet or puddles, with <1mm, friction coefficient 0.50.
Brut UWKD 172030Z 03002MPS 9999 3100SW -SHRA BKN039CB 08/07 Q1000 R29/2/0050 NOSIG RMK QFE739/0986

VFR

8°C / 7°C

[Plus]
Vent 10º 6kt
Visibilité 9000m
Météo Light Showers Rain 3.00mm precipitation
Nuages Vertical Visibility of 0ft.
Pression 1000
Changement No Significant change. Runway 29: Wet or puddles, with <1mm, friction coefficient 0.50.
Brut UWKD 172000Z 01003MPS 9000 -SHRA BKN041CB 08/07 Q1000 R29/2/0050 NOSIG RMK QFE739/0986

VFR

9°C / 8°C

[Plus]
Vent 20º 6kt
Visibilité >10km
Météo Light Showers Rain 3.00mm precipitation
Nuages Vertical Visibility of 0ft.
Pression 1000
Changement No Significant change. Runway 29: Wet or puddles, with <1mm, friction coefficient 0.50.
Brut UWKD 171930Z 02003MPS 9999 -SHRA BKN042CB 09/08 Q1000 R29/2/0050 NOSIG RMK QFE739/0986

MVFR

9°C / 8°C

[Plus]
Vent 360º 8kt
Visibilité 8000m
Météo Light Showers Rain 3.00mm precipitation
Nuages Vertical Visibility of 0ft.
Pression 1000
Changement No Significant change. Runway 29: Wet or puddles, with <1mm, friction coefficient 0.50.
Brut UWKD 171900Z 36004MPS 8000 -SHRA BKN040CB 09/08 Q1000 R29/2/0050 NOSIG RMK QFE739/0986

VFR

10°C / 7°C

[Plus]
Vent 340º 6kt
Visibilité >10km
Météo Light Showers Rain 3.00mm precipitation
Nuages Vertical Visibility of 0ft.
Pression 1000
Changement No Significant change. Runway 29: Wet or puddles, with <1mm, friction coefficient 0.50.
Brut UWKD 171830Z 34003MPS 9999 -SHRA BKN043CB 10/07 Q1000 R29/2/0050 NOSIG RMK QFE739/0986

VFR

9°C / 8°C

[Plus]
Vent variable 0kt
Visibilité >10km
Météo Light Showers Rain 3.00mm precipitation
Nuages Vertical Visibility of 0ft.
Pression 1000
Changement No Significant change. Runway 11: Wet or puddles, with <1mm, friction coefficient 0.50.
Brut UWKD 171800Z 00000MPS 9999 -SHRA BKN043CB 09/08 Q1000 R11/2/0050 NOSIG RMK QFE740/0987

MVFR

10°C / 7°C

[Plus]
Vent 100º variable 060º to 120º 6kt
Visibilité 8000m
Météo Light Showers Rain 3.00mm precipitation
Nuages Vertical Visibility of 0ft.
Pression 1001
Changement No Significant change. Runway 11: Wet or puddles, with <1mm, friction coefficient 0.50.
Brut UWKD 171730Z 10003MPS 060V120 8000 -SHRA BKN037CB 10/07 Q1001 R11/2/0050 NOSIG RMK QFE740/0987

MVFR

10°C / 8°C

[Plus]
Vent 110º variable 010º to 150º 6kt
Visibilité >10km
Météo Light Showers Rain 3.00mm precipitation
Nuages Vertical Visibility of 0ft.
Pression 1000
Changement No Significant change. Runway 29: Damp, with <1mm, friction coefficient 0.60.
Brut UWKD 171700Z 11003MPS 010V150 9999 -SHRA BKN023CB 10/08 Q1000 R29/1/0060 NOSIG RMK QFE739/0986

VFR

11°C / 7°C

[Plus]
Vent 310º 4kt
Visibilité >10km
Météo Light Showers Rain 3.00mm precipitation
Nuages Vertical Visibility of 0ft.
Pression 1000
Changement No Significant change. Runway 29: Damp, with <1mm, friction coefficient 0.60.
Brut UWKD 171630Z 31002MPS 9999 -SHRA BKN037CB 11/07 Q1000 R29/1/0060 NOSIG RMK QFE739/0986

VFR

12°C / 6°C

[Plus]
Vent 310º 4kt
Visibilité >10km
Météo -
Nuages Broken Clouds 4500ft
Pression 1000
Changement No Significant change. Runway 29: Damp, with <1mm, friction coefficient 0.60.
Brut UWKD 171600Z 31002MPS 9999 BKN045CB 12/06 Q1000 R29/1/0060 NOSIG RMK QFE739/0985

VFR

12°C / 6°C

[Plus]
Vent 320º 4kt
Visibilité >10km
Météo -
Nuages Broken Clouds 5400ft
Pression 1000
Changement No Significant change. Runway 29: Damp, with <1mm, friction coefficient 0.60.
Brut UWKD 171530Z 32002MPS 9999 BKN054CB 12/06 Q1000 R29/1/0060 NOSIG RMK QFE739/0985

VFR

12°C / 6°C

[Plus]
Vent 310º variable 290º to 350º 4kt
Visibilité >10km
Météo -
Nuages Broken Clouds 5400ft
Pression 1000
Changement No Significant change. Runway 29: Damp, with <1mm, friction coefficient 0.60.
Brut UWKD 171500Z 31002MPS 290V350 9999 BKN054CB 12/06 Q1000 R29/1/0060 NOSIG RMK QFE739/0985

VFR

13°C / 4°C

[Plus]
Vent 270º variable 240º to 300º 4kt
Visibilité >10km
Météo -
Nuages Broken Clouds 6100ft
Pression 1000
Changement No Significant change. Runway 29: Damp, with <1mm, friction coefficient 0.60.
Brut UWKD 171430Z 27002MPS 240V300 9999 BKN061CB 13/04 Q1000 R29/1/0060 NOSIG RMK QFE739/0985

VFR

13°C / 6°C

[Plus]
Vent 240º variable 200º to 260º 8kt
Visibilité >10km
Météo Light Showers Rain 3.00mm precipitation
Nuages Vertical Visibility of 0ft.
Pression 1000
Changement No Significant change. Runway 29: Damp, with <1mm, friction coefficient 0.60.
Brut UWKD 171400Z 24004MPS 200V260 9999 -SHRA BKN062CB 13/06 Q1000 R29/1/0060 NOSIG RMK QFE739/0985

VFR

13°C / 5°C

[Plus]
Vent 260º 8kt
Visibilité >10km
Météo -
Nuages Broken Clouds 6000ft
Pression 1000
Changement No Significant change. Runway 29: Damp, with <1mm, friction coefficient 0.60.
Brut UWKD 171330Z 26004MPS 9999 BKN060CB 13/05 Q1000 R29/1/0060 NOSIG RMK QFE739/0985

VFR

13°C / 7°C

[Plus]
Vent 250º 10kt
Visibilité >10km
Météo -
Nuages Broken Clouds 6000ft
Pression 1000
Changement No Significant change. Runway 29: Damp, with <1mm, friction coefficient 0.60.
Brut UWKD 171300Z 25005MPS 9999 BKN060CB 13/07 Q1000 R29/1/0060 NOSIG RMK QFE739/0985

VFR

12°C / 7°C

[Plus]
Vent 250º 10kt
Visibilité >10km
Météo Light Showers Rain 3.00mm precipitation
Nuages Vertical Visibility of 0ft.
Pression 1000
Changement No Significant change. Runway 29: Damp, with <1mm, friction coefficient 0.60.
Brut UWKD 171230Z 25005MPS 9999 -SHRA BKN077CB 12/07 Q1000 R29/1/0060 NOSIG RMK QFE739/0985

VFR

12°C / 7°C

[Plus]
Vent 250º 10kt
Visibilité >10km
Météo Light Showers Rain 3.00mm precipitation
Nuages Vertical Visibility of 0ft.
Pression 1000
Changement No Significant change
Brut UWKD 171200Z 25005MPS 9999 -SHRA BKN061CB 12/07 Q1000 R29/CLRD70 NOSIG RMK QFE739/0985

VFR

12°C / 6°C

[Plus]
Vent 230º 8kt
Visibilité >10km
Météo -
Nuages Scattered Clouds 3300ft
Pression 1000
Changement No Significant change
Brut UWKD 171130Z 23004MPS 9999 SCT033CB 12/06 Q1000 R29/70D NOSIG RMK QFE739/0985

VFR

13°C / 6°C

[Plus]
Vent 230º 10kt
Visibilité >10km
Météo -
Nuages Scattered Clouds 3300ft
Pression 1000
Changement No Significant change
Brut UWKD 171100Z 23005MPS 9999 SCT033CB 13/06 Q1000 R29/CLRD70 NOSIG RMK QFE739/0985

VFR

13°C / 5°C

[Plus]
Vent 230º variable 190º to 250º 10kt
Visibilité >10km
Météo -
Nuages Broken Clouds 3300ft
Pression 999
Changement No Significant change
Brut UWKD 171030Z 23005MPS 190V250 9999 BKN033CB 13/05 Q0999 R29/CLRD70 NOSIG RMK QFE739/0985

VFR

14°C / 5°C

[Plus]
Vent 230º variable 200º to 260º 10kt
Visibilité >10km
Météo -
Nuages Broken Clouds 5000ft
Pression 1000
Changement No Significant change
Brut UWKD 171000Z 23005MPS 200V260 9999 BKN050CB 14/05 Q1000 R29/70D NOSIG RMK QFE739/0985

TAF pour 55.61°N 49.28°E (UWKD)

From till


Maximum Temperature 12ºC on . Minimum Temperature 6ºC on .
From till Wind 270º 6kt. Visibility 6000m. Light Rain . Overcast 1600ft.
Temporarly from till Visibility 3100m. Light Showers Rain . Broken Clouds 2000ft.
Becoming from till Wind 360º 10kt. Gust 23kt. Visibility 6000m. Light Rain . Overcast 1600ft.
Temporarly from till Light Showers Rain . Broken Clouds 1700ft.
Becoming from till Wind 360º 10kt. Gust 23kt. Visibility 10km or more. Broken Clouds 2000ft.

Brut: TAF UWKD 171953Z 1721/1821 27003MPS 6000 -RA OVC016 TX12/1813Z TN06/1801Z TEMPO 1721/1804 3100 -SHRA BKN020CB BECMG 1806/1808 36005G12MPS TEMPO 1809/1815 -SHRA BKN017CB BECMG 1815/1817 9999 NSW BKN020

Radar et prévision de précipitation à court terme pour 55.61°N 49.28°E

Bruine
Légère
Modéré
Fort
Très fort
Grêle

Le marqueur est placé sur 55.61°N 49.28°E. Cette animation montre le Radar des précipitations pour les dernières heures, ainsi qu'une 1h prévision. La bruine ou les légères chutes de neiges peuvent ne pas être détectées par le radar. L'intensité des précipitations est visible avec un code couleur allant du bleu clair au violet foncé et orange.

Les images satellites et les pluies actuelles pour 55.61°N 49.28°E

Le marqueur est placé sur 55.61°N 49.28°E. [Plus]

L'image satellite en temps réel combine la lumière visible pendant la journée et le rayonnement infrarouge pendant la nuit. La nuit, l'image n'est pas sombre car le rayonnement infrarouge permet de détecter les différences de température. Malheureusement, les nuages bas et le brouillard sont difficiles à distinguer des températures au sol et peuvent donc être presque invisibles pendant la nuit. Les images des satellites Météosat pour l'Europe sont mises à jour en temps réel toutes les 5 minutes. Les images GOES-16/GOES-17 (Amérique du Nord et du Sud) et Himawari (Asie) sont mises à jour toutes les 10 minutes.

Copyright 2022 EUMETSAT / meteoblue. / Copyright 2022 meteoblue

Retour vers le haut